Time;durP1;ratioP1;P1;durP2;ratioP2;P2;SDS_P1;SDS_P2;PMS_P1;PMS_P2;Temp;Humidity;BMP_temperature;BMP_pressure;BME280_temperature;BME280_humidity;BME280_pressure;Samples;Min_cycle;Max_cycle;Signal;HPM_P1;HPM_P2
2022/08/02 00:00:13;;;;;;;15.07;5.93;;;;;;;;;;5062978;28;20390;-63
2022/08/02 00:02:40;;;;;;;11.15;6.43;;;;;;;;;;5073218;28;20052;-63
2022/08/02 00:05:06;;;;;;;23.88;7.07;;;22.80;95.70;;;;;;5073212;28;20017;-63
2022/08/02 00:07:32;;;;;;;11.63;7.03;;;21.70;99.90;;;;;;5072764;28;20392;-63
2022/08/02 00:09:58;;;;;;;14.85;7.30;;;21.40;99.90;;;;;;5073357;28;20071;-63
2022/08/02 00:12:24;;;;;;;11.45;6.65;;;21.40;99.90;;;;;;5072295;28;20063;-63
2022/08/02 00:14:50;;;;;;;10.43;6.13;;;21.50;99.90;;;;;;5073063;28;20058;-62
2022/08/02 00:17:16;;;;;;;14.27;6.72;;;21.70;99.90;;;;;;5073315;28;20108;-63
2022/08/02 00:19:43;;;;;;;13.35;7.55;;;21.50;99.90;;;;;;5072143;28;20028;-64
2022/08/02 00:22:09;;;;;;;15.02;6.78;;;21.30;99.90;;;;;;5072834;28;20358;-64
2022/08/02 00:24:35;;;;;;;11.88;7.15;;;21.40;99.90;;;;;;5072962;28;20146;-64
2022/08/02 00:27:02;;;;;;;12.95;7.20;;;21.20;99.90;;;;;;5072956;28;20037;-64
2022/08/02 00:29:29;;;;;;;11.07;6.15;;;21.20;99.90;;;;;;5072616;28;20384;-65
2022/08/02 00:31:56;;;;;;;10.77;6.18;;;21.10;99.90;;;;;;5072961;28;20158;-64
2022/08/02 00:34:22;;;;;;;16.35;6.80;;;21.30;99.90;;;;;;5072819;28;20051;-64
2022/08/02 00:36:48;;;;;;;11.88;6.43;;;21.40;99.90;;;;;;5072911;28;20039;-65
2022/08/02 00:39:14;;;;;;;12.98;6.43;;;21.50;99.90;;;;;;5072808;28;20100;-61
2022/08/02 00:41:48;;;;;;;14.30;7.00;;;21.50;99.90;;;;;;5073146;28;20602;-61
2022/08/02 00:44:19;;;;;;;10.63;6.32;;;21.30;99.90;;;;;;5071973;28;20376;-64
2022/08/02 00:46:46;;;;;;;11.93;6.68;;;21.10;99.90;;;;;;5072763;28;20020;-64
2022/08/02 00:49:13;;;;;;;8.15;5.68;;;21.00;99.90;;;;;;5054708;28;20396;-64
2022/08/02 00:51:39;;;;;;;12.05;6.05;;;21.10;99.90;;;;;;5073040;28;20021;-65
2022/08/02 00:54:06;;;;;;;11.88;6.60;;;21.00;99.90;;;;;;5072600;28;20068;-63
2022/08/02 00:56:32;;;;;;;17.90;6.95;;;20.90;99.90;;;;;;5072513;28;20047;-62
2022/08/02 00:58:58;;;;;;;11.27;7.00;;;20.80;99.90;;;;;;5072589;28;20028;-64
2022/08/02 01:01:37;;;;;;;18.38;7.07;;;20.70;99.90;;;;;;5072176;28;20080;-62
2022/08/02 01:04:09;;;;;;;13.00;7.05;;;20.50;99.90;;;;;;5072625;28;20055;-63
2022/08/02 01:06:36;;;;;;;87.15;20.42;;;20.50;99.90;;;;;;5072328;28;20112;-62
2022/08/02 01:09:04;;;;;;;10.32;7.15;;;20.50;99.90;;;;;;5054585;28;20069;-64
2022/08/02 01:11:30;;;;;;;12.93;6.88;;;20.20;99.90;;;;;;5072574;28;20439;-63
2022/08/02 01:14:06;;;;;;;12.75;7.20;;;20.00;99.90;;;;;;5072437;28;20033;-63
2022/08/02 01:16:38;;;;;;;14.45;7.13;;;20.00;99.90;;;;;;5072535;28;20034;-63
2022/08/02 01:19:31;;;;;;;12.75;7.85;;;20.10;99.90;;;;;;5072499;28;20025;-63
2022/08/02 01:22:20;;;;;;;11.95;7.57;;;20.00;99.90;;;;;;5072471;28;20028;-64
2022/08/02 01:25:43;;;;;;;11.57;7.10;;;19.90;99.90;;;;;;5076136;28;20063;-62
2022/08/02 01:28:41;;;;;;;15.98;8.40;;;19.80;99.90;;;;;;4974839;28;20046;-62
2022/08/02 01:31:12;;;;;;;18.38;11.13;;;19.80;99.90;;;;;;5075955;28;20479;-62
2022/08/02 01:33:50;;;;;;;23.58;13.63;;;19.80;99.90;;;;;;5075883;28;20032;-64
2022/08/02 01:36:19;;;;;;;28.83;16.77;;;19.70;99.90;;;;;;5075858;28;20036;-64
2022/08/02 01:38:49;;;;;;;30.48;15.30;;;19.70;99.90;;;;;;5075783;28;20032;-62
2022/08/02 01:41:18;;;;;;;21.02;12.05;;;19.70;99.90;;;;;;5075831;28;20028;-64
2022/08/02 01:43:47;;;;;;;25.27;12.00;;;19.70;99.90;;;;;;5075693;28;20025;-64
2022/08/02 01:46:15;;;;;;;16.77;11.55;;;19.70;99.90;;;;;;5075357;28;20358;-65
2022/08/02 01:48:42;;;;;;;19.45;12.05;;;19.80;99.90;;;;;;5075900;28;20035;-63
2022/08/02 01:51:12;;;;;;;15.02;9.85;;;19.80;99.90;;;;;;5075621;28;20078;-61
2022/08/02 01:53:40;;;;;;;20.13;11.45;;;19.80;99.90;;;;;;5057372;28;20405;-62
2022/08/02 01:56:07;;;;;;;16.65;10.80;;;19.90;99.90;;;;;;5075501;28;20051;-63
2022/08/02 01:58:36;;;;;;;18.83;9.20;;;19.80;99.90;;;;;;5075133;28;20465;-62
2022/08/02 02:01:05;;;;;;;23.55;10.10;;;20.10;99.90;;;;;;5074297;28;20041;-62
2022/08/02 02:03:32;;;;;;;11.63;9.30;;;20.10;99.90;;;;;;5074042;28;20131;-62
2022/08/02 02:06:00;;;;;;;11.43;9.00;;;20.10;99.90;;;;;;5071460;28;20074;-63
2022/08/02 02:08:32;;;;;;;12.20;9.75;;;20.30;99.90;;;;;;5073956;28;20021;-63
2022/08/02 02:11:01;;;;;;;16.30;10.05;;;20.30;99.90;;;;;;5071454;28;20032;-64
2022/08/02 02:13:28;;;;;;;22.20;10.30;;;20.20;99.90;;;;;;5073962;28;20775;-63
2022/08/02 02:15:55;;;;;;;19.00;10.00;;;20.10;99.90;;;;;;5073662;28;20020;-64
2022/08/02 02:18:24;;;;;;;12.30;9.20;;;20.10;99.90;;;;;;5073721;28;20111;-63
2022/08/02 02:20:52;;;;;;;15.55;9.40;;;20.10;99.90;;;;;;5071022;28;20025;-63
2022/08/02 02:23:18;;;;;;;15.88;9.23;;;19.90;99.90;;;;;;5055688;28;20086;-64
2022/08/02 02:25:44;;;;;;;15.05;10.02;;;19.70;99.90;;;;;;5073498;28;20021;-62
2022/08/02 02:28:23;;;;;;;14.38;9.98;;;19.60;99.90;;;;;;5073868;28;20517;-61
2022/08/02 02:30:53;;;;;;;17.95;9.32;;;19.60;99.90;;;;;;5070620;28;20024;-63
2022/08/02 02:33:21;;;;;;;15.02;10.40;;;19.50;99.90;;;;;;5074826;28;20028;-64
2022/08/02 02:35:51;;;;;;;19.52;10.15;;;19.60;99.90;;;;;;5074101;28;20036;-64
2022/08/02 02:38:19;;;;;;;16.73;9.65;;;19.50;99.90;;;;;;5074375;28;20407;-64
2022/08/02 02:40:47;;;;;;;14.45;10.07;;;19.70;99.90;;;;;;5074684;28;20031;-65
2022/08/02 02:43:14;;;;;;;16.88;10.43;;;19.70;99.90;;;;;;5055976;28;20029;-62
2022/08/02 02:45:40;;;;;;;19.98;10.82;;;19.60;99.90;;;;;;5074551;28;20493;-62
2022/08/02 02:48:08;;;;;;;15.98;10.98;;;19.50;99.90;;;;;;5056464;28;20109;-62
2022/08/02 02:50:36;;;;;;;14.15;10.13;;;19.40;99.90;;;;;;5056481;28;20033;-64
2022/08/02 02:53:02;;;;;;;17.98;10.07;;;19.30;99.90;;;;;;5074553;28;20400;-62
2022/08/02 02:55:29;;;;;;;22.00;11.38;;;;;;;;;;5074329;28;20032;-64
2022/08/02 02:57:55;;;;;;;18.50;10.98;;;;;;;;;;5073978;28;20579;-63
2022/08/02 03:01:26;;;;;;;18.80;10.93;;;;;;;;;;5055900;28;20239;-62
2022/08/02 03:03:09;;;;;;;22.38;10.25;;;;;;;;;;5073601;28;20090;-64
2022/08/02 03:05:35;;;;;;;15.70;9.88;;;19.30;99.90;;;;;;5074173;28;20046;-62
2022/08/02 03:08:01;;;;;;;19.38;10.48;;;19.10;99.90;;;;;;5074197;28;20575;-65
2022/08/02 03:10:27;;;;;;;22.73;10.77;;;19.10;99.90;;;;;;5074078;28;20133;-65
2022/08/02 03:12:54;;;;;;;16.67;10.90;;;19.10;99.90;;;;;;5055928;28;20033;-62
2022/08/02 03:15:21;;;;;;;17.33;10.57;;;19.10;99.90;;;;;;5073938;28;20051;-65
2022/08/02 03:17:46;;;;;;;19.10;11.60;;;19.10;99.90;;;;;;5073954;28;20074;-65
2022/08/02 03:20:18;;;;;;;18.05;10.65;;;19.10;99.90;;;;;;5073852;28;20067;-63
2022/08/02 03:22:44;;;;;;;;;;;19.10;99.90;;;;;;5074289;28;20488;-62
2022/08/02 03:25:11;;;;;;;25.20;11.50;;;19.00;99.90;;;;;;5073743;28;19935;-61
2022/08/02 03:27:38;;;;;;;19.08;11.93;;;19.00;99.90;;;;;;5073753;28;20032;-62
2022/08/02 03:30:05;;;;;;;21.15;11.63;;;19.10;99.90;;;;;;5073641;28;20031;-62
2022/08/02 03:32:35;;;;;;;21.90;11.73;;;19.00;99.90;;;;;;5073607;28;20627;-61
2022/08/02 03:35:04;;;;;;;18.83;12.98;;;19.00;99.90;;;;;;5073601;28;20032;-62
2022/08/02 03:37:31;;;;;;;31.25;12.70;;;18.90;99.90;;;;;;5073462;28;20433;-62
2022/08/02 03:39:57;;;;;;;19.77;11.77;;;18.90;99.90;;;;;;5073521;28;20024;-61
2022/08/02 03:42:26;;;;;;;22.77;11.35;;;18.90;99.90;;;;;;5073550;28;20028;-61
2022/08/02 03:44:54;;;;;;;21.63;11.10;;;19.00;99.90;;;;;;5073428;28;20485;-62
2022/08/02 03:47:21;;;;;;;20.92;12.20;;;19.20;99.90;;;;;;5072705;28;20028;-62
2022/08/02 03:49:48;;;;;;;20.25;10.60;;;19.20;99.90;;;;;;5073057;28;20031;-62
2022/08/02 03:52:14;;;;;;;20.67;10.97;;;19.20;99.90;;;;;;5073315;28;20031;-62
2022/08/02 03:54:40;;;;;;;26.08;11.98;;;19.10;99.90;;;;;;5073342;28;20224;-62
2022/08/02 03:57:06;;;;;;;27.83;12.70;;;19.10;99.90;;;;;;5073289;28;20024;-61
2022/08/02 03:59:48;;;;;;;23.13;12.98;;;19.10;99.90;;;;;;5072884;28;20053;-62
2022/08/02 04:02:13;;;;;;;24.83;14.55;;;19.10;99.90;;;;;;5055280;28;20492;-61
2022/08/02 04:04:39;;;;;;;28.17;16.90;;;19.00;99.90;;;;;;5073172;28;20060;-61
2022/08/02 04:07:05;;;;;;;28.85;16.63;;;19.00;99.90;;;;;;5073159;28;20472;-62
2022/08/02 04:09:31;;;;;;;41.03;26.00;;;19.00;99.90;;;;;;5055089;28;20033;-62
2022/08/02 04:11:58;;;;;;;36.88;25.67;;;19.00;99.90;;;;;;5073066;28;20553;-62
2022/08/02 04:14:24;;;;;;;36.00;22.02;;;18.90;99.90;;;;;;5072974;28;20123;-62
2022/08/02 04:17:03;;;;;;;31.42;19.38;;;18.90;99.90;;;;;;5072781;28;20104;-61
2022/08/02 04:19:52;;;;;;;27.30;16.67;;;18.90;99.90;;;;;;5055026;28;20412;-62
2022/08/02 04:22:30;;;;;;;24.27;13.38;;;;;;;;;;5044106;28;20477;-61
2022/08/02 04:24:58;;;;;;;21.73;13.18;;;;;;;;;;5073268;28;20023;-63
2022/08/02 04:27:24;;;;;;;20.40;12.32;;;;;;;;;;5054972;28;20104;-62
2022/08/02 04:29:51;;;;;;;21.17;13.10;;;18.90;99.90;;;;;;5072927;28;20465;-62
2022/08/02 04:32:17;;;;;;;20.65;12.95;;;18.90;99.90;;;;;;5072939;28;20040;-63
2022/08/02 04:34:44;;;;;;;27.10;12.85;;;18.90;99.90;;;;;;5054924;28;20116;-62
2022/08/02 04:37:11;;;;;;;18.25;11.25;;;19.00;99.90;;;;;;5073100;28;20032;-62
2022/08/02 04:39:40;;;;;;;25.40;11.48;;;19.00;99.90;;;;;;5054873;28;20083;-62
2022/08/02 04:42:06;;;;;;;18.23;10.73;;;19.10;99.90;;;;;;5072722;28;20369;-61
2022/08/02 04:44:33;;;;;;;18.80;9.65;;;19.20;99.90;;;;;;5072749;28;20420;-62
2022/08/02 04:47:04;;;;;;;11.77;8.45;;;19.30;99.90;;;;;;5054768;28;20044;-61
2022/08/02 04:49:30;;;;;;;26.80;8.40;;;19.40;99.90;;;;;;5072844;28;20031;-61
2022/08/02 04:51:56;;;;;;;12.57;7.93;;;19.50;99.90;;;;;;5054671;28;20733;-63
2022/08/02 04:54:24;;;;;;;12.18;7.75;;;19.60;99.90;;;;;;5072660;28;20031;-62
2022/08/02 04:56:50;;;;;;;9.85;7.32;;;19.70;99.90;;;;;;5072663;28;20035;-62
2022/08/02 04:59:17;;;;;;;13.52;7.85;;;;;;;;;;5076021;28;20494;-61
2022/08/02 05:01:43;;;;;;;10.18;7.25;;;19.90;99.90;;;;;;5058645;28;20403;-62
2022/08/02 05:04:09;;;;;;;8.77;6.85;;;20.10;99.90;;;;;;5076502;28;20051;-62
2022/08/02 05:06:34;;;;;;;10.13;6.40;;;20.10;99.90;;;;;;5076405;28;20461;-62
2022/08/02 05:09:00;;;;;;;10.57;6.80;;;20.30;99.90;;;;;;5058435;28;20028;-63
2022/08/02 05:11:26;;;;;;;11.45;6.72;;;20.30;99.90;;;;;;5076289;28;20104;-62
2022/08/02 05:13:52;;;;;;;10.75;5.80;;;20.40;99.90;;;;;;5075917;28;20431;-62
2022/08/02 05:16:18;;;;;;;12.75;6.35;;;20.50;99.90;;;;;;5076244;28;20062;-61
2022/08/02 05:18:44;;;;;;;11.52;6.10;;;20.50;99.90;;;;;;5075877;28;20025;-62
2022/08/02 05:21:10;;;;;;;14.82;6.80;;;20.60;99.90;;;;;;5076168;28;20473;-62
2022/08/02 05:23:36;;;;;;;7.80;6.00;;;20.70;99.90;;;;;;5075796;28;20067;-62
2022/08/02 05:26:02;;;;;;;13.32;5.63;;;20.80;99.90;;;;;;5076325;28;20024;-62
2022/08/02 05:28:28;;;;;;;8.45;6.03;;;;;;;;;;5076001;28;20358;-62
2022/08/02 05:30:54;;;;;;;10.02;6.05;;;20.90;99.90;;;;;;5076187;28;20059;-61
2022/08/02 05:33:20;;;;;;;9.55;6.07;;;21.00;99.90;;;;;;5075854;28;20067;-62
2022/08/02 05:35:46;;;;;;;16.02;6.22;;;21.00;99.90;;;;;;5075722;28;20067;-62
2022/08/02 05:38:12;;;;;;;10.70;5.32;;;21.10;99.90;;;;;;5075769;28;20099;-62
2022/08/02 05:40:37;;;;;;;16.27;6.38;;;21.10;99.90;;;;;;5075441;28;20422;-64
2022/08/02 05:43:11;;;;;;;9.63;5.50;;;;;;;;;;5075549;28;20060;-61
2022/08/02 05:45:37;;;;;;;12.13;5.97;;;21.20;99.90;;;;;;5057705;28;20373;-64
2022/08/02 05:48:03;;;;;;;7.40;6.30;;;21.40;99.90;;;;;;5075568;28;20040;-60
2022/08/02 05:50:30;;;;;;;9.65;6.00;;;21.40;99.90;;;;;;5075867;28;20032;-64
2022/08/02 05:52:59;;;;;;;6.35;5.47;;;21.50;99.90;;;;;;5075553;28;20024;-63
2022/08/02 05:55:33;;;;;;;9.55;5.63;;;;;;;;;;5075226;28;20060;-63
2022/08/02 05:58:12;;;;;;;7.78;5.95;;;;;;;;;;5075216;28;20405;-62
2022/08/02 06:00:40;;;;;;;7.40;6.05;;;21.60;99.90;;;;;;5075410;28;20044;-64
2022/08/02 06:03:06;;;;;;;15.25;6.25;;;;;;;;;;5075418;28;20040;-65
2022/08/02 06:05:34;;;;;;;12.02;5.45;;;;;;;;;;5075331;28;20052;-63
2022/08/02 06:08:00;;;;;;;10.75;5.25;;;;;;;;;;5075294;28;20040;-65
2022/08/02 06:10:27;;;;;;;12.20;5.57;;;;;;;;;;5056224;28;20020;-62
2022/08/02 06:13:05;;;;;;;8.05;6.28;;;;;;;;;;5056800;28;20024;-62
2022/08/02 06:15:32;;;;;;;11.18;5.38;;;;;;;;;;5074871;28;20025;-62
2022/08/02 06:17:59;;;;;;;9.60;4.93;;;;;;;;;;5075154;28;20024;-64
2022/08/02 06:20:26;;;;;;;15.68;5.53;;;;;;;;;;5075078;28;20449;-63
2022/08/02 06:22:55;;;;;;;13.90;5.63;;;;;;;;;;5074940;28;20040;-63
2022/08/02 06:25:22;;;;;;;9.77;5.22;;;;;;;;;;5057045;28;20028;-62
2022/08/02 06:27:49;;;;;;;8.10;4.78;;;;;;;;;;5056830;28;20547;-61
2022/08/02 06:30:15;;;;;;;7.65;4.95;;;;;;;;;;5074709;28;20056;-64
2022/08/02 06:32:43;;;;;;;12.60;5.43;;;;;;;;;;5074651;28;20475;-63
2022/08/02 06:35:09;;;;;;;5.80;4.80;;;;;;;;;;5075050;28;20036;-64
2022/08/02 06:37:50;;;;;;;9.50;5.47;;;;;;;;;;5074641;28;20078;-64
2022/08/02 06:40:27;;;;;;;8.10;5.20;;;;;;;;;;5074692;28;20483;-63
2022/08/02 06:43:10;;;;;;;10.02;4.90;;;;;;;;;;5074416;28;20028;-64
2022/08/02 06:45:36;;;;;;;8.15;5.38;;;;;;;;;;5074595;28;20024;-64
2022/08/02 06:48:03;;;;;;;8.32;5.40;;;;;;;;;;5074489;28;20056;-64
2022/08/02 06:50:29;;;;;;;8.10;5.43;;;21.90;99.90;;;;;;5074502;28;20078;-65
2022/08/02 06:52:56;;;;;;;11.00;5.30;;;23.80;99.90;;;;;;5074341;28;20452;-66
2022/08/02 06:55:21;;;;;;;11.60;5.82;;;23.80;99.90;;;;;;5074465;28;20037;-68
2022/08/02 06:57:47;;;;;;;8.85;4.60;;;23.90;99.90;;;;;;5074551;28;20067;-65
2022/08/02 07:00:14;;;;;;;13.60;4.78;;;24.00;99.90;;;;;;5073924;28;20086;-64
2022/08/02 07:02:40;;;;;;;10.60;4.70;;;;;;;;;;5056245;28;20469;-64
2022/08/02 07:05:07;;;;;;;9.40;4.80;;;;;;;;;;5074193;28;20024;-64
2022/08/02 07:07:33;;;;;;;10.95;5.18;;;;;;;;;;5074101;28;20405;-65
2022/08/02 07:09:59;;;;;;;11.00;4.82;;;;;;;;;;5074165;28;20166;-63
2022/08/02 07:12:26;;;;;;;9.00;5.60;;;;;;;;;;5073634;28;20051;-63
2022/08/02 07:14:52;;;;;;;9.68;4.60;;;;;;;;;;5073708;28;20062;-65
2022/08/02 07:17:18;;;;;;;9.90;4.50;;;;;;;;;;5060676;28;20031;-62
2022/08/02 07:19:44;;;;;;;6.68;4.28;;;;;;;;;;5073629;28;20024;-63
2022/08/02 07:22:11;;;;;;;8.75;4.90;;;;;;;;;;5073541;28;20016;-63
2022/08/02 07:24:38;;;;;;;6.88;3.72;;;;;;;;;;5071726;28;20078;-63
2022/08/02 07:27:05;;;;;;;6.95;4.40;;;25.40;99.90;;;;;;5073337;28;20023;-64
2022/08/02 07:29:31;;;;;;;9.85;4.45;;;25.40;99.90;;;;;;5073519;28;20131;-62
2022/08/02 07:31:57;;;;;;;12.90;4.68;;;25.40;99.90;;;;;;5073433;28;20035;-62
2022/08/02 07:34:23;;;;;;;7.50;4.07;;;25.50;99.90;;;;;;5073273;28;20109;-63
2022/08/02 07:36:49;;;;;;;11.82;4.03;;;25.60;99.90;;;;;;5073055;28;20040;-63
2022/08/02 07:39:14;;;;;;;10.25;4.45;;;25.70;99.90;;;;;;5073389;28;20052;-63
2022/08/02 07:41:40;;;;;;;4.82;3.83;;;25.90;99.90;;;;;;5073041;28;20024;-63
2022/08/02 07:44:06;;;;;;;5.45;3.72;;;26.00;99.90;;;;;;5073114;28;20035;-62
2022/08/02 07:46:32;;;;;;;4.90;3.80;;;26.10;99.90;;;;;;5073209;28;20046;-62
2022/08/02 07:48:58;;;;;;;7.07;4.53;;;26.10;99.90;;;;;;5073191;28;20033;-63
2022/08/02 07:51:24;;;;;;;8.68;3.03;;;;;;;;;;5073494;28;20028;-63
2022/08/02 07:53:50;;;;;;;5.38;2.90;;;;;;;;;;5072971;28;20032;-63
2022/08/02 07:56:16;;;;;;;3.65;2.60;;;26.30;99.90;;;;;;5073263;28;20028;-62
2022/08/02 07:58:42;;;;;;;3.90;2.45;;;26.80;99.90;;;;;;5073439;28;20028;-63
2022/08/02 08:01:08;;;;;;;5.30;2.38;;;26.90;99.90;;;;;;5072956;28;20041;-63
2022/08/02 08:03:34;;;;;;;8.02;3.72;;;26.90;98.80;;;;;;5073087;28;20109;-62
2022/08/02 08:06:01;;;;;;;16.45;10.13;;;27.00;99.60;;;;;;5072675;28;20020;-61
2022/08/02 08:08:27;;;;;;;19.20;14.63;;;27.00;99.90;;;;;;5073229;28;20032;-62
2022/08/02 08:10:53;;;;;;;10.35;6.05;;;27.10;99.50;;;;;;5073082;28;20369;-62
2022/08/02 08:13:19;;;;;;;5.80;2.60;;;27.20;98.00;;;;;;5071470;28;20485;-64
2022/08/02 08:15:44;;;;;;;5.30;2.85;;;27.30;96.90;;;;;;5071194;28;20043;-62
2022/08/02 08:18:10;;;;;;;4.63;2.30;;;27.40;95.80;;;;;;5071576;28;20024;-63
2022/08/02 08:20:37;;;;;;;2.78;2.40;;;27.60;95.60;;;;;;5072869;28;20032;-62
2022/08/02 08:23:03;;;;;;;6.40;2.90;;;27.70;94.20;;;;;;5072931;28;20457;-62
2022/08/02 08:25:29;;;;;;;9.07;4.30;;;27.90;94.90;;;;;;5072948;28;20035;-62
2022/08/02 08:27:55;;;;;;;6.20;3.38;;;28.00;95.00;;;;;;5072527;28;20103;-63
2022/08/02 08:30:21;;;;;;;4.30;1.92;;;28.10;93.60;;;;;;5071445;28;20350;-62
2022/08/02 08:32:47;;;;;;;5.95;1.65;;;28.30;93.40;;;;;;5074085;28;20102;-62
2022/08/02 08:35:13;;;;;;;5.75;2.25;;;28.30;91.00;;;;;;5076917;28;20037;-62
2022/08/02 08:37:39;;;;;;;1.95;1.75;;;28.40;90.40;;;;;;5077212;28;20492;-63
2022/08/02 08:40:06;;;;;;;5.35;2.38;;;28.50;90.20;;;;;;5076741;28;20021;-61
2022/08/02 08:42:36;;;;;;;10.40;3.22;;;28.60;91.40;;;;;;5079415;28;20028;-67
2022/08/02 08:45:02;;;;;;;5.88;2.35;;;28.80;90.70;;;;;;5083567;28;20456;-62
2022/08/02 08:47:37;;;;;;;8.57;2.10;;;28.90;87.70;;;;;;5058241;28;20077;-62
2022/08/02 08:50:09;;;;;;;5.60;2.40;;;29.10;86.50;;;;;;5076298;28;20056;-63
2022/08/02 08:52:41;;;;;;;8.13;2.65;;;29.20;87.80;;;;;;5076327;28;20085;-62
2022/08/02 08:55:10;;;;;;;6.30;2.53;;;29.20;87.60;;;;;;5074694;28;20054;-63
2022/08/02 08:57:40;;;;;;;5.10;2.05;;;29.20;88.90;;;;;;5076542;28;20029;-63
2022/08/02 09:00:08;;;;;;;3.30;1.73;;;29.40;88.70;;;;;;5076353;28;20044;-65
2022/08/02 09:02:35;;;;;;;5.15;2.20;;;29.60;87.80;;;;;;5076298;28;20031;-63
2022/08/02 09:05:01;;;;;;;3.03;1.83;;;29.70;85.10;;;;;;5058050;28;20052;-64
2022/08/02 09:07:27;;;;;;;5.93;1.98;;;29.70;84.30;;;;;;5076311;28;20028;-63
2022/08/02 09:09:53;;;;;;;4.60;2.28;;;29.80;83.80;;;;;;5076215;28;20024;-63
2022/08/02 09:12:23;;;;;;;5.03;2.20;;;29.90;84.40;;;;;;5076066;28;20021;-61
2022/08/02 09:14:50;;;;;;;3.08;2.10;;;30.10;83.10;;;;;;5064853;28;20492;-63
2022/08/02 09:17:16;;;;;;;2.03;1.80;;;30.20;85.80;;;;;;5096291;28;20468;-62
2022/08/02 09:19:42;;;;;;;4.45;1.77;;;30.20;84.00;;;;;;5078093;28;20135;-63
2022/08/02 09:22:10;;;;;;;6.60;1.92;;;30.20;84.30;;;;;;5096269;28;20099;-63
2022/08/02 09:24:50;;;;;;;6.38;1.75;;;30.40;83.50;;;;;;5096303;28;20035;-62
2022/08/02 09:27:22;;;;;;;6.07;2.10;;;30.60;86.90;;;;;;5087672;28;20469;-63
2022/08/02 09:29:52;;;;;;;4.07;2.10;;;30.70;83.20;;;;;;5076038;28;20206;-63
2022/08/02 09:32:19;;;;;;;6.60;2.38;;;30.80;80.40;;;;;;5075874;28;20063;-63
2022/08/02 09:34:47;;;;;;;13.95;2.30;;;30.90;79.40;;;;;;5075727;28;20113;-62
2022/08/02 09:37:30;;;;;;;2.92;1.75;;;31.00;79.90;;;;;;5075584;28;20035;-64
2022/08/02 09:40:02;;;;;;;5.80;1.90;;;31.10;80.50;;;;;;5075598;28;20025;-65
2022/08/02 09:42:28;;;;;;;1.63;1.45;;;31.20;78.40;;;;;;5075685;28;20086;-65
2022/08/02 09:44:56;;;;;;;3.92;1.67;;;31.40;79.70;;;;;;5075281;28;20392;-65
2022/08/02 09:47:23;;;;;;;3.20;2.13;;;31.60;78.40;;;;;;5074789;28;20137;-63
2022/08/02 09:49:49;;;;;;;2.35;1.85;;;31.80;78.60;;;;;;5075212;28;20469;-63
2022/08/02 09:52:22;;;;;;;3.10;1.55;;;31.80;76.60;;;;;;5075366;28;20039;-64
2022/08/02 09:54:48;;;;;;;4.07;2.08;;;31.90;75.00;;;;;;5075449;28;20029;-65
2022/08/02 09:57:28;;;;;;;12.50;2.00;;;32.00;77.50;;;;;;5075433;28;20032;-65
2022/08/02 09:59:57;;;;;;;1.98;1.67;;;32.40;76.70;;;;;;5075122;28;20050;-64
2022/08/02 10:02:24;;;;;;;2.53;1.70;;;32.40;76.80;;;;;;5075240;28;20025;-65
2022/08/02 10:04:50;;;;;;;8.85;1.80;;;32.60;77.50;;;;;;5075264;28;20113;-64
2022/08/02 10:07:16;;;;;;;6.50;2.08;;;32.50;74.60;;;;;;5057243;28;20021;-64
2022/08/02 10:09:44;;;;;;;4.75;1.73;;;32.50;74.30;;;;;;5075181;28;20034;-64
2022/08/02 10:12:12;;;;;;;2.15;1.80;;;32.70;75.10;;;;;;5075074;28;20028;-64
2022/08/02 10:14:38;;;;;;;4.00;1.92;;;33.00;75.50;;;;;;5075008;28;20456;-64
2022/08/02 10:17:06;;;;;;;3.95;1.80;;;33.10;73.40;;;;;;5074755;28;20025;-63
2022/08/02 10:19:33;;;;;;;5.65;2.15;;;33.30;74.70;;;;;;5075042;28;20024;-64
2022/08/02 10:22:10;;;;;;;3.55;1.95;;;32.70;72.00;;;;;;5074840;28;20024;-63
2022/08/02 10:24:38;;;;;;;4.15;1.70;;;32.30;72.60;;;;;;5074849;28;20036;-64
2022/08/02 10:27:25;;;;;;;1.63;1.52;;;31.90;73.80;;;;;;5056953;28;20035;-64
2022/08/02 10:29:54;;;;;;;4.18;1.63;;;31.70;74.80;;;;;;5073988;28;20070;-64
2022/08/02 10:32:28;;;;;;;1.88;1.50;;;31.80;74.90;;;;;;5074785;28;20032;-64
2022/08/02 10:34:59;;;;;;;3.95;1.63;;;32.30;72.90;;;;;;5074745;28;20143;-64
2022/08/02 10:37:31;;;;;;;3.33;1.77;;;32.80;72.30;;;;;;5074706;28;20063;-65
2022/08/02 10:39:57;;;;;;;5.07;1.80;;;33.40;70.30;;;;;;5074515;28;20060;-64
2022/08/02 10:42:43;;;;;;;3.03;2.13;;;34.30;70.30;;;;;;5074567;28;20059;-64
2022/08/02 10:45:10;;;;;;;4.18;2.25;;;34.30;71.30;;;;;;5074514;28;20085;-64
2022/08/02 10:47:37;;;;;;;2.47;1.70;;;34.70;70.00;;;;;;5073106;28;20028;-65
2022/08/02 10:50:03;;;;;;;3.47;1.60;;;;;;;;;;5074317;28;20040;-64
2022/08/02 10:52:32;;;;;;;2.40;1.50;;;;;;;;;;5066880;28;20023;-63
2022/08/02 10:55:00;;;;;;;5.15;1.52;;;;;;;;;;5035888;28;20059;-66
2022/08/02 10:57:33;;;;;;;2.70;1.70;;;36.90;64.30;;;;;;5036274;28;20025;-64
2022/08/02 11:00:12;;;;;;;2.20;1.52;;;36.60;64.80;;;;;;5054038;28;20068;-63
2022/08/02 11:02:40;;;;;;;2.20;1.50;;;37.10;64.20;;;;;;5066848;28;20417;-63
2022/08/02 11:05:08;;;;;;;2.28;1.50;;;37.60;64.20;;;;;;5074118;28;20025;-63
2022/08/02 11:07:44;;;;;;;4.05;1.60;;;37.60;62.60;;;;;;5074025;28;20024;-62
2022/08/02 11:10:25;;;;;;;10.15;1.80;;;37.60;60.80;;;;;;5073696;28;20443;-62
2022/08/02 11:13:03;;;;;;;2.65;2.15;;;37.50;60.80;;;;;;5073918;28;20039;-63
2022/08/02 11:15:29;;;;;;;7.95;2.10;;;39.00;59.90;;;;;;5073927;28;20040;-64
2022/08/02 11:17:59;;;;;;;1.98;1.58;;;39.10;60.00;;;;;;5073681;28;20028;-63
2022/08/02 11:20:26;;;;;;;5.03;1.50;;;39.40;58.40;;;;;;5055863;28;20029;-64
2022/08/02 11:22:54;;;;;;;3.10;1.60;;;39.00;57.50;;;;;;5073764;28;20531;-63
2022/08/02 11:25:23;;;;;;;1.73;1.60;;;40.20;57.90;;;;;;5042156;28;20025;-65
2022/08/02 11:27:57;;;;;;;15.82;2.30;;;40.10;58.60;;;;;;5053959;28;20031;-67
2022/08/02 11:30:24;;;;;;;1.70;1.58;;;40.40;57.20;;;;;;5063893;28;20029;-63
2022/08/02 11:32:50;;;;;;;2.33;1.35;;;;;;;;;;5073223;28;20443;-63
2022/08/02 11:35:16;;;;;;;2.58;2.20;;;37.40;59.30;;;;;;5073506;28;20032;-62
2022/08/02 11:37:43;;;;;;;4.35;1.70;;;39.20;58.00;;;;;;5055541;28;20381;-64
2022/08/02 11:40:15;;;;;;;2.55;1.80;;;39.40;58.70;;;;;;5073101;28;20435;-65
2022/08/02 11:42:43;;;;;;;3.10;1.70;;;40.00;57.50;;;;;;5073512;28;20029;-64
2022/08/02 11:45:12;;;;;;;1.33;1.33;;;40.10;58.00;;;;;;5073401;28;20025;-62
2022/08/02 11:47:48;;;;;;;1.65;1.50;;;40.20;56.30;;;;;;5073475;28;20024;-65
2022/08/02 11:50:16;;;;;;;1.70;1.60;;;;;;;;;;5073183;28;20034;-63
2022/08/02 11:52:43;;;;;;;2.90;1.33;;;40.60;56.20;;;;;;5073297;28;20016;-63
2022/08/02 11:55:09;;;;;;;4.80;1.42;;;41.00;54.60;;;;;;5073261;28;20465;-64
2022/08/02 11:57:36;;;;;;;4.45;1.25;;;41.30;55.40;;;;;;5073602;28;20032;-65
2022/08/02 12:00:13;;;;;;;4.72;1.27;;;42.10;56.20;;;;;;5054753;28;20704;-66
2022/08/02 12:02:46;;;;;;;3.35;1.45;;;42.10;61.20;;;;;;5073536;28;20051;-66
2022/08/02 12:05:16;;;;;;;5.70;1.30;;;41.70;53.30;;;;;;5055137;28;20024;-66
2022/08/02 12:07:44;;;;;;;2.55;1.17;;;;;;;;;;5072648;28;20090;-64
2022/08/02 12:10:12;;;;;;;2.50;1.50;;;43.30;53.50;;;;;;5054905;28;20028;-65
2022/08/02 12:12:57;;;;;;;4.60;1.23;;;41.80;54.80;;;;;;5072376;28;20377;-65
2022/08/02 12:15:30;;;;;;;7.57;1.77;;;;;;;;;;5054817;28;20456;-65
2022/08/02 12:20:41;;;;;;;1.58;1.33;;;42.70;52.50;;;;;;5057969;28;20493;-65
2022/08/02 12:23:07;;;;;;;2.08;1.45;;;;;;;;;;5054552;28;20044;-64
2022/08/02 12:25:33;;;;;;;4.22;1.70;;;42.80;52.00;;;;;;5072855;28;20032;-64
2022/08/02 12:28:37;;;;;;;2.65;1.55;;;41.20;53.30;;;;;;5072773;28;20492;-66
2022/08/02 12:31:04;;;;;;;2.20;1.30;;;41.20;52.70;;;;;;4954987;28;20143;-67
2022/08/02 12:33:50;;;;;;;2.47;1.55;;;41.70;53.40;;;;;;4971584;28;20115;-63
2022/08/02 12:36:18;;;;;;;4.43;1.20;;;41.60;51.60;;;;;;4971887;28;20178;-63
2022/08/02 12:38:57;;;;;;;2.97;1.42;;;40.30;54.20;;;;;;4955489;28;20030;-66
2022/08/02 12:41:24;;;;;;;1.55;1.45;;;38.90;55.10;;;;;;4971877;28;20134;-62
2022/08/02 12:43:51;;;;;;;4.80;1.50;;;36.70;56.60;;;;;;4971643;28;20035;-64
2022/08/02 12:46:22;;;;;;;4.22;1.80;;;36.20;57.80;;;;;;4971749;28;20388;-64
2022/08/02 12:48:47;;;;;;;;;;;36.50;58.60;;;;;;4972013;28;20035;-65
2022/08/02 12:51:35;;;;;;;1.52;1.33;;;38.60;57.80;;;;;;4971591;28;19913;-65
2022/08/02 12:54:23;;;;;;;2.70;1.77;;;36.30;58.90;;;;;;4955112;28;20043;-63
2022/08/02 12:56:50;;;;;;;3.80;1.33;;;;;;;;;;4971547;28;20043;-63
2022/08/02 12:59:17;;;;;;;2.72;1.70;;;;;;;;;;4971213;28;20117;-62
2022/08/02 13:01:44;;;;;;;3.85;1.73;;;35.10;60.00;;;;;;4971435;28;20031;-64
2022/08/02 13:04:10;;;;;;;2.67;1.50;;;36.60;60.50;;;;;;4971292;28;20404;-65
2022/08/02 13:06:36;;;;;;;1.50;1.40;;;38.60;58.70;;;;;;5024726;28;20044;-64
2022/08/02 13:09:10;;;;;;;1.50;1.40;;;41.20;54.30;;;;;;5072454;28;20028;-64